Time;durP1;ratioP1;P1;durP2;ratioP2;P2;SDS_P1;SDS_P2;PMS_P1;PMS_P2;Temp;Humidity;BMP_temperature;BMP_pressure;BME280_temperature;BME280_humidity;BME280_pressure;Samples;Min_cycle;Max_cycle;Signal;HPM_P1;HPM_P2
2022/08/26 00:01:31;;;;;;;9.50;5.07;;;25.90;99.90;;;;;;5032888;28;20502;-74
2022/08/26 00:04:00;;;;;;;10.13;6.38;;;25.80;99.90;;;;;;5050934;28;20063;-75
2022/08/26 00:06:30;;;;;;;8.95;6.00;;;25.80;99.90;;;;;;5066068;28;20391;-75
2022/08/26 00:08:58;;;;;;;9.05;5.90;;;25.80;99.90;;;;;;5049706;28;20039;-75
2022/08/26 00:11:26;;;;;;;10.45;5.93;;;25.80;99.90;;;;;;5033113;28;20051;-75
2022/08/26 00:13:55;;;;;;;11.95;5.82;;;25.80;99.90;;;;;;5050725;28;20053;-76
2022/08/26 00:16:27;;;;;;;9.48;6.10;;;25.80;99.90;;;;;;5032678;28;20138;-75
2022/08/26 00:18:55;;;;;;;14.60;7.35;;;25.80;99.90;;;;;;5033089;28;20114;-76
2022/08/26 00:21:23;;;;;;;15.75;6.88;;;25.80;99.90;;;;;;5032808;28;20142;-76
2022/08/26 00:23:50;;;;;;;10.82;6.05;;;25.80;99.90;;;;;;5066031;28;20427;-75
2022/08/26 00:26:18;;;;;;;11.02;5.95;;;25.70;99.90;;;;;;5042219;28;20052;-75
2022/08/26 00:28:45;;;;;;;9.68;4.65;;;25.80;99.90;;;;;;5049333;28;20080;-75
2022/08/26 00:31:13;;;;;;;8.75;5.10;;;25.80;99.90;;;;;;5065571;28;20052;-75
2022/08/26 00:33:41;;;;;;;9.60;5.25;;;25.70;99.90;;;;;;5048743;28;20045;-75
2022/08/26 00:36:08;;;;;;;7.75;5.13;;;25.70;99.90;;;;;;5082896;28;20075;-75
2022/08/26 00:38:37;;;;;;;10.82;5.25;;;25.70;99.90;;;;;;5083921;28;20834;-75
2022/08/26 00:41:05;;;;;;;9.90;5.57;;;25.70;99.90;;;;;;5072442;28;20091;-75
2022/08/26 00:43:34;;;;;;;10.07;5.72;;;25.70;99.90;;;;;;5089028;28;20037;-75
2022/08/26 00:46:15;;;;;;;7.63;5.03;;;25.70;99.90;;;;;;5056036;28;20044;-76
2022/08/26 00:48:45;;;;;;;10.55;5.30;;;25.70;99.90;;;;;;5089775;28;20041;-76
2022/08/26 00:51:21;;;;;;;10.40;5.47;;;25.70;99.90;;;;;;5072563;28;20135;-76
2022/08/26 00:53:56;;;;;;;8.77;5.57;;;25.60;99.90;;;;;;5089049;28;20075;-74
2022/08/26 00:56:27;;;;;;;7.30;5.27;;;25.60;99.90;;;;;;5057150;28;20049;-75
2022/08/26 00:58:57;;;;;;;7.07;5.10;;;25.70;99.90;;;;;;5056949;28;20562;-75
2022/08/26 01:01:27;;;;;;;9.38;5.47;;;25.60;99.90;;;;;;5089177;28;20059;-76
2022/08/26 01:03:55;;;;;;;11.38;5.15;;;25.60;99.90;;;;;;5088839;28;20566;-75
2022/08/26 01:06:23;;;;;;;14.00;6.18;;;25.60;99.90;;;;;;5089209;28;20045;-75
2022/08/26 01:08:51;;;;;;;8.07;5.00;;;25.60;99.90;;;;;;5088897;28;20045;-75
2022/08/26 01:11:19;;;;;;;7.07;4.68;;;25.60;99.90;;;;;;5055824;28;20068;-76
2022/08/26 01:13:49;;;;;;;10.00;5.22;;;25.60;99.90;;;;;;5072075;28;20033;-75
2022/08/26 01:16:17;;;;;;;9.40;5.22;;;25.60;99.90;;;;;;5089175;28;20530;-75
2022/08/26 01:18:45;;;;;;;7.25;4.25;;;25.60;99.90;;;;;;5056944;28;20045;-75
2022/08/26 01:21:38;;;;;;;12.43;5.55;;;25.60;99.90;;;;;;5069852;28;20045;-75
2022/08/26 01:24:06;;;;;;;10.25;6.03;;;25.60;99.90;;;;;;5076718;28;20044;-74
2022/08/26 01:26:39;;;;;;;6.75;4.40;;;25.60;99.90;;;;;;5109383;28;20131;-75
2022/08/26 01:29:16;;;;;;;7.97;4.95;;;25.60;99.90;;;;;;5058729;28;20075;-75
2022/08/26 01:31:48;;;;;;;11.05;4.45;;;25.60;99.90;;;;;;5109015;28;20719;-75
2022/08/26 01:34:29;;;;;;;10.38;5.15;;;25.50;99.90;;;;;;5109579;28;20044;-75
2022/08/26 01:37:18;;;;;;;8.70;4.50;;;25.60;99.90;;;;;;5075291;28;20083;-75
2022/08/26 01:39:53;;;;;;;8.88;4.97;;;25.60;99.90;;;;;;5058415;28;20058;-75
2022/08/26 01:42:23;;;;;;;11.83;4.87;;;25.60;99.90;;;;;;5092222;28;20072;-75
2022/08/26 01:45:09;;;;;;;6.38;4.60;;;25.60;99.90;;;;;;5077101;28;20079;-75
2022/08/26 01:47:38;;;;;;;6.38;4.47;;;25.50;99.90;;;;;;5075463;28;20658;-75
2022/08/26 01:50:12;;;;;;;9.98;4.40;;;25.50;99.90;;;;;;5074307;28;20152;-75
2022/08/26 01:52:43;;;;;;;7.97;4.38;;;25.50;99.90;;;;;;5071657;28;20083;-75
2022/08/26 01:55:14;;;;;;;7.88;4.55;;;25.50;99.90;;;;;;5073464;28;20528;-75
2022/08/26 01:57:44;;;;;;;12.23;4.95;;;25.50;99.90;;;;;;5072118;28;20044;-75
2022/08/26 02:00:13;;;;;;;10.52;4.88;;;25.50;99.90;;;;;;5073187;28;20043;-75
2022/08/26 02:02:43;;;;;;;9.00;5.55;;;25.50;99.90;;;;;;5073110;28;20131;-75
2022/08/26 02:05:17;;;;;;;9.30;5.07;;;25.40;99.90;;;;;;5071847;28;20039;-75
2022/08/26 02:07:46;;;;;;;10.15;5.43;;;25.50;99.90;;;;;;5072132;28;20045;-75
2022/08/26 02:10:14;;;;;;;7.60;4.88;;;25.50;99.90;;;;;;5068264;28;20038;-75
2022/08/26 02:12:42;;;;;;;10.15;4.82;;;25.50;99.90;;;;;;5068227;28;20051;-75
2022/08/26 02:15:11;;;;;;;15.65;5.47;;;25.50;99.90;;;;;;5052944;28;20076;-75
2022/08/26 02:17:42;;;;;;;13.32;5.97;;;25.40;99.90;;;;;;5051521;28;20124;-75
2022/08/26 02:20:15;;;;;;;8.88;4.93;;;25.40;99.90;;;;;;5052922;28;20037;-75
2022/08/26 02:22:43;;;;;;;10.60;5.10;;;25.40;99.90;;;;;;5084862;28;20045;-74
2022/08/26 02:25:17;;;;;;;9.77;6.60;;;25.40;99.90;;;;;;5052661;28;20045;-75
2022/08/26 02:27:46;;;;;;;7.68;4.82;;;25.40;99.90;;;;;;5084755;28;20428;-75
2022/08/26 02:30:20;;;;;;;13.75;6.70;;;25.30;99.90;;;;;;5084273;28;20141;-75
2022/08/26 02:32:48;;;;;;;9.25;5.38;;;25.30;99.90;;;;;;5052794;28;20677;-75
2022/08/26 02:35:17;;;;;;;10.50;5.57;;;25.30;99.90;;;;;;5052507;28;20076;-75
2022/08/26 02:37:45;;;;;;;12.48;5.68;;;25.30;99.90;;;;;;5051267;28;20057;-75
2022/08/26 02:40:15;;;;;;;11.13;5.22;;;25.30;99.90;;;;;;5084656;28;20045;-75
2022/08/26 02:42:42;;;;;;;12.35;5.45;;;25.20;99.90;;;;;;5052319;28;20072;-75
2022/08/26 02:45:10;;;;;;;9.60;5.75;;;25.20;99.90;;;;;;5052851;28;20386;-75
2022/08/26 02:47:38;;;;;;;11.93;5.15;;;25.20;99.90;;;;;;5052493;28;20057;-75
2022/08/26 02:50:06;;;;;;;7.72;5.28;;;25.20;99.90;;;;;;5052299;28;20199;-75
2022/08/26 02:52:34;;;;;;;11.65;5.85;;;25.10;99.90;;;;;;5084348;28;20076;-75
2022/08/26 02:55:02;;;;;;;10.77;6.18;;;25.10;99.90;;;;;;5050928;28;20514;-75
2022/08/26 02:57:30;;;;;;;10.40;5.13;;;25.10;99.90;;;;;;5050752;28;20133;-75
2022/08/26 02:59:59;;;;;;;7.53;4.65;;;25.10;99.90;;;;;;5052573;28;20053;-75
2022/08/26 03:02:28;;;;;;;6.95;4.30;;;25.10;99.90;;;;;;5078333;28;20052;-75
2022/08/26 03:04:55;;;;;;;9.15;5.22;;;25.10;99.90;;;;;;5084589;28;20399;-75
2022/08/26 03:07:23;;;;;;;6.38;4.35;;;25.10;99.90;;;;;;5067140;28;20041;-75
2022/08/26 03:09:51;;;;;;;16.23;5.25;;;25.10;99.90;;;;;;5050582;28;20057;-75
2022/08/26 03:12:19;;;;;;;11.15;4.95;;;25.10;99.90;;;;;;5051981;28;20571;-75
2022/08/26 03:14:47;;;;;;;8.77;4.22;;;25.00;99.90;;;;;;5067126;28;20491;-75
2022/08/26 03:17:15;;;;;;;10.18;4.65;;;25.00;99.90;;;;;;5051870;28;20041;-74
2022/08/26 03:19:42;;;;;;;10.48;4.75;;;25.00;99.90;;;;;;5050446;28;20048;-75
2022/08/26 03:22:10;;;;;;;10.13;5.20;;;25.00;99.90;;;;;;5066996;28;20133;-75
2022/08/26 03:24:38;;;;;;;7.95;4.78;;;25.00;99.90;;;;;;5083996;28;20048;-75
2022/08/26 03:27:05;;;;;;;8.25;4.53;;;25.00;99.90;;;;;;5066956;28;20040;-75
2022/08/26 03:32:19;;;;;;;;;;;25.00;99.90;;;;;;5050753;28;20041;-75
2022/08/26 03:34:47;;;;;;;11.23;4.97;;;25.00;99.90;;;;;;5066706;28;20298;-74
2022/08/26 03:37:14;;;;;;;6.60;4.13;;;25.00;99.90;;;;;;5083179;28;20533;-75
2022/08/26 03:39:41;;;;;;;9.18;4.95;;;25.00;99.90;;;;;;5051099;28;20041;-75
2022/08/26 03:42:10;;;;;;;7.28;4.45;;;25.00;99.90;;;;;;5083673;28;20049;-75
2022/08/26 03:44:37;;;;;;;7.00;4.47;;;24.90;99.90;;;;;;5051222;28;20115;-75
2022/08/26 03:47:06;;;;;;;6.28;4.20;;;24.90;99.90;;;;;;5051077;28;20047;-75
2022/08/26 03:49:34;;;;;;;9.10;4.97;;;24.90;99.90;;;;;;5066089;28;20059;-75
2022/08/26 03:52:03;;;;;;;6.70;4.22;;;24.90;99.90;;;;;;5081064;28;20063;-75
2022/08/26 03:54:30;;;;;;;6.90;4.65;;;24.90;99.90;;;;;;5050214;28;20106;-74
2022/08/26 03:56:58;;;;;;;7.20;4.50;;;24.90;99.90;;;;;;5049640;28;20044;-75
2022/08/26 03:59:26;;;;;;;7.35;4.45;;;24.90;99.90;;;;;;5049598;28;20045;-75
2022/08/26 04:01:54;;;;;;;7.32;4.68;;;24.90;99.90;;;;;;5066215;28;20114;-75
2022/08/26 04:04:21;;;;;;;7.43;4.13;;;24.90;99.90;;;;;;5066249;28;20099;-75
2022/08/26 04:06:49;;;;;;;7.13;4.30;;;24.90;99.90;;;;;;5049371;28;20087;-75
2022/08/26 04:09:19;;;;;;;10.80;4.82;;;24.90;99.90;;;;;;5083166;28;20578;-75
2022/08/26 04:11:48;;;;;;;14.20;5.43;;;24.90;99.90;;;;;;5066332;28;20063;-75
2022/08/26 04:14:18;;;;;;;7.03;4.57;;;24.90;99.90;;;;;;5082137;28;20124;-75
2022/08/26 04:16:47;;;;;;;10.25;4.18;;;24.90;99.90;;;;;;5049503;28;20098;-75
2022/08/26 04:19:15;;;;;;;7.80;4.30;;;24.90;99.90;;;;;;5049396;28;20719;-74
2022/08/26 04:21:44;;;;;;;10.10;4.53;;;24.90;99.90;;;;;;5049114;28;20094;-74
2022/08/26 04:24:14;;;;;;;10.40;5.78;;;24.90;99.90;;;;;;5049548;28;20056;-75
2022/08/26 04:26:42;;;;;;;8.40;3.85;;;24.90;99.90;;;;;;5049296;28;20045;-75
2022/08/26 04:29:20;;;;;;;8.98;4.32;;;24.90;99.90;;;;;;5082445;28;20048;-75
2022/08/26 04:31:47;;;;;;;6.90;4.65;;;25.00;99.90;;;;;;5082412;28;20040;-75
2022/08/26 04:34:16;;;;;;;6.68;4.05;;;24.90;99.90;;;;;;5049235;28;20087;-75
2022/08/26 04:36:43;;;;;;;8.93;5.00;;;25.00;99.90;;;;;;5082195;28;20562;-75
2022/08/26 04:39:15;;;;;;;10.35;4.18;;;25.00;99.90;;;;;;5082606;28;20522;-75
2022/08/26 04:41:43;;;;;;;7.97;4.53;;;25.00;99.90;;;;;;5065331;28;20098;-75
2022/08/26 04:44:12;;;;;;;7.50;4.50;;;25.00;99.90;;;;;;5082726;28;20045;-75
2022/08/26 04:46:39;;;;;;;9.20;4.68;;;25.10;99.90;;;;;;5033114;28;20045;-75
2022/08/26 04:49:08;;;;;;;9.25;5.43;;;25.10;99.90;;;;;;5049573;28;20503;-74
2022/08/26 04:51:36;;;;;;;10.18;5.13;;;25.10;99.90;;;;;;5048985;28;20051;-75
2022/08/26 04:54:05;;;;;;;8.80;5.20;;;25.20;99.90;;;;;;5049139;28;20056;-74
2022/08/26 04:56:40;;;;;;;7.45;4.70;;;25.30;99.90;;;;;;5049138;28;20041;-75
2022/08/26 04:59:14;;;;;;;8.30;4.53;;;25.40;99.90;;;;;;5049022;28;20562;-74
2022/08/26 05:01:47;;;;;;;9.30;4.97;;;25.50;99.90;;;;;;5049053;28;20048;-74
2022/08/26 05:04:16;;;;;;;9.70;4.95;;;25.60;99.90;;;;;;5032752;28;20053;-75
2022/08/26 05:06:43;;;;;;;8.18;4.20;;;25.70;99.90;;;;;;5049117;28;20135;-75
2022/08/26 05:09:12;;;;;;;11.55;6.63;;;25.80;99.90;;;;;;5050185;28;20045;-75
2022/08/26 05:11:40;;;;;;;7.10;4.60;;;25.90;99.90;;;;;;5065368;28;20057;-75
2022/08/26 05:14:07;;;;;;;8.95;5.47;;;25.90;99.90;;;;;;5082271;28;20041;-75
2022/08/26 05:16:35;;;;;;;7.15;4.40;;;26.10;99.90;;;;;;5049183;28;20052;-75
2022/08/26 05:19:04;;;;;;;7.35;4.57;;;26.10;99.90;;;;;;5032579;28;20407;-74
2022/08/26 05:21:32;;;;;;;9.15;4.97;;;26.10;99.90;;;;;;5048244;28;20140;-74
2022/08/26 05:24:00;;;;;;;7.68;4.57;;;26.10;99.90;;;;;;5048657;28;20049;-75
2022/08/26 05:26:29;;;;;;;9.27;4.63;;;26.10;99.90;;;;;;5052003;28;20053;-74
2022/08/26 05:28:57;;;;;;;13.57;5.22;;;26.10;99.90;;;;;;5052702;28;20037;-75
2022/08/26 05:31:28;;;;;;;6.68;4.32;;;26.20;99.90;;;;;;5068814;28;20071;-75
2022/08/26 05:33:56;;;;;;;7.60;4.70;;;26.30;99.90;;;;;;5069365;28;20048;-74
2022/08/26 05:36:27;;;;;;;7.30;4.35;;;26.40;99.90;;;;;;5061129;28;20037;-75
2022/08/26 05:38:56;;;;;;;7.85;4.75;;;26.50;99.90;;;;;;5072234;28;20040;-74
2022/08/26 05:41:27;;;;;;;10.45;4.20;;;26.70;99.90;;;;;;5072066;28;20048;-74
2022/08/26 05:43:56;;;;;;;9.50;4.90;;;26.80;99.90;;;;;;5072454;28;20372;-75
2022/08/26 05:46:25;;;;;;;6.68;4.32;;;27.00;99.90;;;;;;5072427;28;20071;-75
2022/08/26 05:48:55;;;;;;;6.68;4.18;;;27.10;99.90;;;;;;5055836;28;20102;-75
2022/08/26 05:51:23;;;;;;;7.57;4.72;;;27.30;99.90;;;;;;5055111;28;20044;-74
2022/08/26 05:53:52;;;;;;;9.27;6.20;;;27.40;99.90;;;;;;5105956;28;20098;-75
2022/08/26 05:56:23;;;;;;;16.02;7.68;;;27.60;99.90;;;;;;5072228;28;20410;-74
2022/08/26 05:58:51;;;;;;;11.25;5.45;;;27.70;99.90;;;;;;5072438;28;20048;-74
2022/08/26 06:01:21;;;;;;;11.85;6.25;;;27.70;99.90;;;;;;5073344;28;20040;-74
2022/08/26 06:03:53;;;;;;;8.40;4.90;;;27.80;99.90;;;;;;5073136;28;20049;-74
2022/08/26 06:06:24;;;;;;;9.77;4.57;;;27.90;99.90;;;;;;5089059;28;20147;-74
2022/08/26 06:08:52;;;;;;;6.63;4.13;;;28.00;99.90;;;;;;5071890;28;20410;-75
2022/08/26 06:11:25;;;;;;;9.10;4.55;;;28.00;99.90;;;;;;5071445;28;20044;-75
2022/08/26 06:13:54;;;;;;;12.48;4.47;;;28.10;99.90;;;;;;5073061;28;20044;-75
2022/08/26 06:16:24;;;;;;;10.43;3.90;;;28.20;99.90;;;;;;5088994;28;20426;-74
2022/08/26 06:18:52;;;;;;;9.70;3.97;;;28.30;99.90;;;;;;5071765;28;20044;-75
2022/08/26 06:21:28;;;;;;;6.57;4.43;;;28.40;99.90;;;;;;5071648;28;20106;-74
2022/08/26 06:27:01;;;;;;;7.10;4.43;;;28.60;99.90;;;;;;5052896;28;20063;-73
2022/08/26 06:29:32;;;;;;;7.65;5.30;;;28.70;99.90;;;;;;5068045;28;20044;-74
2022/08/26 06:32:01;;;;;;;9.25;5.65;;;28.80;99.90;;;;;;5051736;28;20132;-74
2022/08/26 06:34:29;;;;;;;10.00;4.55;;;29.00;99.70;;;;;;5051390;28;20053;-75
2022/08/26 06:37:01;;;;;;;10.27;4.80;;;29.00;99.70;;;;;;5051939;28;20067;-73
2022/08/26 06:39:29;;;;;;;11.40;5.07;;;29.10;99.40;;;;;;5034674;28;20049;-73
2022/08/26 06:42:01;;;;;;;6.72;3.70;;;29.20;99.20;;;;;;5035150;28;20395;-73
2022/08/26 06:44:32;;;;;;;;;;;29.30;99.40;;;;;;5068358;28;20056;-73
2022/08/26 06:47:00;;;;;;;6.88;3.85;;;29.40;99.00;;;;;;5084639;28;20404;-73
2022/08/26 06:49:28;;;;;;;9.25;4.82;;;29.40;98.90;;;;;;5067225;28;20041;-73
2022/08/26 06:51:58;;;;;;;10.27;4.60;;;29.50;98.90;;;;;;5067523;28;20399;-73
2022/08/26 06:54:29;;;;;;;6.93;3.80;;;29.50;98.70;;;;;;5084483;28;20072;-72
2022/08/26 06:56:57;;;;;;;7.55;3.95;;;29.70;98.60;;;;;;5084380;28;20115;-73
2022/08/26 06:59:25;;;;;;;8.02;4.18;;;29.80;98.60;;;;;;5050836;28;20049;-73
2022/08/26 07:01:53;;;;;;;5.95;3.80;;;29.90;98.30;;;;;;5051186;28;20095;-73
2022/08/26 07:04:23;;;;;;;8.85;4.65;;;30.00;98.10;;;;;;5084003;28;20049;-73
2022/08/26 07:06:51;;;;;;;5.95;3.88;;;30.10;97.90;;;;;;5067169;28;20049;-73
2022/08/26 07:09:22;;;;;;;5.93;3.47;;;30.10;97.90;;;;;;5050380;28;20044;-73
2022/08/26 07:11:50;;;;;;;5.65;3.65;;;30.20;97.80;;;;;;5050731;28;20057;-73
2022/08/26 07:14:18;;;;;;;6.65;3.85;;;30.30;97.50;;;;;;5050927;28;20118;-73
2022/08/26 07:16:46;;;;;;;8.55;4.18;;;30.30;97.30;;;;;;5087043;28;20047;-74
2022/08/26 07:19:15;;;;;;;6.93;4.47;;;30.40;97.20;;;;;;5054078;28;20171;-73
2022/08/26 07:21:42;;;;;;;9.93;4.20;;;30.40;97.20;;;;;;5053439;28;20078;-73
2022/08/26 07:24:10;;;;;;;11.98;4.75;;;30.40;97.40;;;;;;5103726;28;20048;-74
2022/08/26 07:26:38;;;;;;;7.93;4.20;;;30.50;97.60;;;;;;5070795;28;20052;-73
2022/08/26 07:29:06;;;;;;;8.57;4.15;;;30.40;97.60;;;;;;5087280;28;20482;-73
2022/08/26 07:31:36;;;;;;;10.48;3.75;;;30.50;97.40;;;;;;5069834;28;20407;-73
2022/08/26 07:34:05;;;;;;;12.68;4.43;;;30.60;97.50;;;;;;5070184;28;20044;-74
2022/08/26 07:36:33;;;;;;;6.88;3.75;;;30.60;97.20;;;;;;5070616;28;20066;-73
2022/08/26 07:39:00;;;;;;;8.27;4.00;;;30.80;97.00;;;;;;5070330;28;20064;-74
2022/08/26 07:41:28;;;;;;;7.15;3.80;;;30.90;97.20;;;;;;5086959;28;20047;-74
2022/08/26 07:44:01;;;;;;;8.77;4.05;;;30.90;97.30;;;;;;5054312;28;20140;-73
2022/08/26 07:46:28;;;;;;;9.90;4.25;;;30.90;97.00;;;;;;5087383;28;20082;-73
2022/08/26 07:48:57;;;;;;;6.90;4.45;;;31.10;97.00;;;;;;5102926;28;20574;-74
2022/08/26 07:51:26;;;;;;;6.88;3.70;;;31.10;97.00;;;;;;5069808;28;20036;-74
2022/08/26 07:53:54;;;;;;;7.70;3.63;;;31.20;96.80;;;;;;5069722;28;20640;-74
2022/08/26 07:56:22;;;;;;;6.18;3.95;;;31.30;96.50;;;;;;5070161;28;20193;-73
2022/08/26 07:58:51;;;;;;;9.45;4.40;;;31.40;96.10;;;;;;5069896;28;20442;-73
2022/08/26 08:01:22;;;;;;;6.75;3.63;;;31.30;95.80;;;;;;5052965;28;20044;-74
2022/08/26 08:03:52;;;;;;;8.10;4.30;;;31.40;96.00;;;;;;5086429;28;20072;-74
2022/08/26 08:06:21;;;;;;;9.90;3.95;;;31.50;95.90;;;;;;5068251;28;20449;-73
2022/08/26 08:08:50;;;;;;;6.38;3.80;;;31.40;95.70;;;;;;5070975;28;20044;-74
2022/08/26 08:11:21;;;;;;;9.20;4.25;;;31.50;95.90;;;;;;5071029;28;20059;-73
2022/08/26 08:13:50;;;;;;;6.53;3.70;;;31.60;95.80;;;;;;5086622;28;20539;-74
2022/08/26 08:16:18;;;;;;;8.95;4.00;;;31.70;95.70;;;;;;5069738;28;20569;-73
2022/08/26 08:18:45;;;;;;;10.07;4.55;;;31.70;95.70;;;;;;5069897;28;20052;-73
2022/08/26 08:21:14;;;;;;;5.85;3.45;;;31.50;95.80;;;;;;5086298;28;20059;-73
2022/08/26 08:23:46;;;;;;;8.85;4.20;;;31.60;95.70;;;;;;5069442;28;20605;-72
2022/08/26 08:26:14;;;;;;;8.73;5.15;;;31.60;95.70;;;;;;5069441;28;20055;-74
2022/08/26 08:28:41;;;;;;;13.38;4.63;;;31.60;95.20;;;;;;5069219;28;20052;-73
2022/08/26 08:31:24;;;;;;;7.07;4.30;;;31.70;95.10;;;;;;5070680;28;20521;-73
2022/08/26 08:34:06;;;;;;;9.55;4.07;;;31.70;95.20;;;;;;5052845;28;20576;-73
2022/08/26 08:36:34;;;;;;;6.85;3.28;;;31.70;95.40;;;;;;5069458;28;20499;-75
2022/08/26 08:39:01;;;;;;;13.73;4.75;;;31.70;94.90;;;;;;5103080;28;20036;-75
2022/08/26 08:41:47;;;;;;;6.75;3.15;;;31.80;94.90;;;;;;5103080;28;20056;-74
2022/08/26 08:44:18;;;;;;;;;;;31.80;94.90;;;;;;5069664;28;20052;-74
2022/08/26 08:46:55;;;;;;;8.00;4.68;;;31.80;94.80;;;;;;5103184;28;19990;-73
2022/08/26 08:49:24;;;;;;;7.63;3.88;;;31.90;94.60;;;;;;5102913;28;20398;-72
2022/08/26 08:52:03;;;;;;;12.07;4.22;;;31.90;94.60;;;;;;5086065;28;20041;-73
2022/08/26 08:54:32;;;;;;;6.88;3.53;;;31.90;94.40;;;;;;5052325;28;20064;-73
2022/08/26 08:57:11;;;;;;;7.00;3.67;;;31.90;94.50;;;;;;5103051;28;20128;-73
2022/08/26 09:00:07;;;;;;;8.90;3.13;;;31.90;94.10;;;;;;5085580;28;20053;-73
2022/08/26 09:02:42;;;;;;;10.63;5.00;;;31.90;94.10;;;;;;5078978;28;20060;-74
2022/08/26 09:05:19;;;;;;;;;;;31.90;94.10;;;;;;5070030;28;20499;-74
2022/08/26 09:08:27;;;;;;;9.75;3.35;;;31.90;94.40;;;;;;5069873;28;19924;-73
2022/08/26 09:11:00;;;;;;;6.30;3.63;;;32.00;94.30;;;;;;5051942;28;20045;-73
2022/08/26 09:13:28;;;;;;;6.22;4.80;;;32.10;94.30;;;;;;5038513;28;20083;-73
2022/08/26 09:16:06;;;;;;;8.52;4.57;;;32.10;94.30;;;;;;5086839;28;20063;-74
2022/08/26 09:18:33;;;;;;;12.23;3.47;;;32.10;94.10;;;;;;5085993;28;20491;-73
2022/08/26 09:21:04;;;;;;;9.07;3.75;;;32.00;94.00;;;;;;5069244;28;20053;-74
2022/08/26 09:23:36;;;;;;;5.90;3.42;;;32.00;94.40;;;;;;5068940;28;20520;-73
2022/08/26 09:26:19;;;;;;;8.63;3.72;;;31.90;94.40;;;;;;5053039;28;20053;-74
2022/08/26 09:28:57;;;;;;;9.50;3.92;;;32.00;94.40;;;;;;5086562;28;20087;-74
2022/08/26 09:31:27;;;;;;;11.20;4.80;;;31.90;94.40;;;;;;5068817;28;20045;-74
2022/08/26 09:34:10;;;;;;;8.63;5.45;;;32.10;94.10;;;;;;5086547;28;20052;-74
2022/08/26 09:36:41;;;;;;;7.93;3.83;;;32.10;94.10;;;;;;5086125;28;20044;-74
2022/08/26 09:39:26;;;;;;;10.25;4.22;;;32.10;94.10;;;;;;5086039;28;20032;-73
2022/08/26 09:42:06;;;;;;;;;;;32.00;94.20;;;;;;5086501;28;20049;-74
2022/08/26 09:45:02;;;;;;;11.30;4.93;;;32.10;94.10;;;;;;5085941;28;19924;-73
2022/08/26 09:47:44;;;;;;;9.75;4.03;;;32.10;94.30;;;;;;5068897;28;20507;-73
2022/08/26 09:50:22;;;;;;;10.55;4.53;;;32.10;94.20;;;;;;5052077;28;20057;-73
2022/08/26 09:53:13;;;;;;;15.15;4.18;;;32.20;94.20;;;;;;5085807;28;20067;-72
2022/08/26 09:55:46;;;;;;;10.43;4.30;;;32.20;94.20;;;;;;5085392;28;20403;-72
2022/08/26 09:58:31;;;;;;;7.32;3.72;;;32.20;93.80;;;;;;5086101;28;20556;-72
2022/08/26 10:01:01;;;;;;;8.70;4.57;;;32.30;94.00;;;;;;5085476;28;20041;-72
2022/08/26 10:03:32;;;;;;;15.48;4.90;;;32.30;93.90;;;;;;5052573;28;20495;-72
2022/08/26 10:06:05;;;;;;;10.15;4.20;;;32.30;93.70;;;;;;5053268;28;20041;-72
2022/08/26 10:08:37;;;;;;;9.68;4.00;;;32.30;93.50;;;;;;5053030;28;20045;-73
2022/08/26 10:11:36;;;;;;;12.95;5.07;;;32.50;93.40;;;;;;5068068;28;20087;-73
2022/08/26 10:14:18;;;;;;;7.78;3.80;;;32.30;93.60;;;;;;5039022;28;20047;-73
2022/08/26 10:17:04;;;;;;;9.63;4.10;;;32.20;93.70;;;;;;5035139;28;20041;-72
2022/08/26 10:19:37;;;;;;;9.40;4.28;;;32.20;93.50;;;;;;5067837;28;20052;-73
2022/08/26 10:22:19;;;;;;;7.28;4.22;;;32.40;93.80;;;;;;5053211;28;20077;-73
2022/08/26 10:24:54;;;;;;;11.18;4.38;;;32.40;93.70;;;;;;5084860;28;20056;-73
2022/08/26 10:27:38;;;;;;;8.98;3.58;;;32.30;93.90;;;;;;5051092;28;20053;-73
2022/08/26 10:30:11;;;;;;;7.35;4.35;;;32.40;93.90;;;;;;5084600;28;20083;-73
2022/08/26 10:32:38;;;;;;;10.35;5.78;;;32.40;93.90;;;;;;5035594;28;20048;-73
2022/08/26 10:35:10;;;;;;;7.88;3.90;;;32.40;93.60;;;;;;5084874;28;20045;-73
2022/08/26 10:37:48;;;;;;;15.68;5.72;;;32.40;93.80;;;;;;5035003;28;20071;-72
2022/08/26 10:40:26;;;;;;;5.60;4.53;;;32.30;93.50;;;;;;5034675;28;20047;-73
2022/08/26 10:43:35;;;;;;;9.93;4.15;;;32.20;93.40;;;;;;5051323;28;20144;-73
2022/08/26 10:46:09;;;;;;;8.38;4.25;;;32.20;93.20;;;;;;5067871;28;20037;-72
2022/08/26 10:48:45;;;;;;;13.52;4.57;;;32.10;93.20;;;;;;5018211;28;20045;-73
2022/08/26 10:51:18;;;;;;;14.27;4.32;;;32.10;93.20;;;;;;5052234;28;20564;-72
2022/08/26 10:53:57;;;;;;;11.23;4.40;;;32.10;93.50;;;;;;5067865;28;20056;-72
2022/08/26 10:56:55;;;;;;;13.50;4.03;;;32.20;93.50;;;;;;5051025;28;20384;-72
2022/08/26 10:59:51;;;;;;;10.75;4.88;;;32.20;93.40;;;;;;5095856;28;20036;-72
2022/08/26 11:02:45;;;;;;;8.10;3.88;;;32.30;93.30;;;;;;5072164;28;20441;-72
2022/08/26 11:05:22;;;;;;;8.40;3.90;;;32.30;93.40;;;;;;5070747;28;20056;-73
2022/08/26 11:07:53;;;;;;;13.10;4.40;;;32.30;93.20;;;;;;5054073;28;20064;-73
2022/08/26 11:10:22;;;;;;;9.27;4.65;;;32.30;93.00;;;;;;5071285;28;20128;-72
2022/08/26 11:12:49;;;;;;;16.50;4.55;;;32.30;93.20;;;;;;5103983;28;20040;-73
2022/08/26 11:15:20;;;;;;;12.30;4.20;;;32.20;93.10;;;;;;5104141;28;20072;-73
2022/08/26 11:17:51;;;;;;;10.25;3.75;;;32.30;93.00;;;;;;5071953;28;20068;-73
2022/08/26 11:20:32;;;;;;;12.18;4.47;;;32.30;93.00;;;;;;5104108;28;20068;-73
2022/08/26 11:23:29;;;;;;;10.38;5.50;;;32.30;92.90;;;;;;5086663;28;20044;-73
2022/08/26 11:26:08;;;;;;;12.32;5.10;;;32.30;92.60;;;;;;5077208;28;20108;-73
2022/08/26 11:28:47;;;;;;;14.40;5.93;;;32.30;93.00;;;;;;5103974;28;20040;-73
2022/08/26 11:31:24;;;;;;;11.45;4.85;;;32.30;92.80;;;;;;5086614;28;20432;-71
2022/08/26 11:33:57;;;;;;;11.15;4.53;;;32.30;92.70;;;;;;5087363;28;20054;-72
2022/08/26 11:36:37;;;;;;;12.60;4.82;;;32.30;92.90;;;;;;5086791;28;20052;-72
2022/08/26 11:39:20;;;;;;;8.15;4.75;;;32.30;92.90;;;;;;5086693;28;20037;-72
2022/08/26 11:41:52;;;;;;;11.63;4.93;;;32.20;92.60;;;;;;5071314;28;20394;-72
2022/08/26 11:44:36;;;;;;;21.17;5.00;;;32.10;92.70;;;;;;5070040;28;20090;-72
2022/08/26 11:47:04;;;;;;;15.45;5.80;;;32.00;92.80;;;;;;5067937;28;20044;-73
2022/08/26 11:49:32;;;;;;;8.75;4.60;;;32.10;92.60;;;;;;5069340;28;20979;-73
2022/08/26 11:52:19;;;;;;;11.60;4.53;;;32.10;92.80;;;;;;5086561;28;20040;-73
2022/08/26 11:55:10;;;;;;;9.50;4.80;;;32.10;92.60;;;;;;5069886;28;20045;-72
2022/08/26 11:57:48;;;;;;;13.02;5.57;;;32.10;92.40;;;;;;5057492;28;20426;-72
2022/08/26 12:00:29;;;;;;;9.60;5.50;;;32.00;92.30;;;;;;5049572;28;20106;-73
2022/08/26 12:03:01;;;;;;;9.82;5.00;;;32.00;92.30;;;;;;5066503;28;20110;-72
2022/08/26 12:05:35;;;;;;;10.35;4.63;;;31.90;92.20;;;;;;5082855;28;20094;-72
2022/08/26 12:08:08;;;;;;;14.70;4.70;;;31.90;92.10;;;;;;5066406;28;20041;-72
2022/08/26 12:10:36;;;;;;;9.05;4.75;;;31.90;91.90;;;;;;5049256;28;20055;-72
2022/08/26 12:13:05;;;;;;;13.40;4.32;;;31.90;91.80;;;;;;5050842;28;20756;-72
2022/08/26 12:15:34;;;;;;;11.85;5.40;;;31.90;92.10;;;;;;5049496;28;20107;-72
2022/08/26 12:18:32;;;;;;;11.52;4.88;;;31.90;92.00;;;;;;5049579;28;20049;-72
2022/08/26 12:21:17;;;;;;;10.98;4.90;;;31.90;91.60;;;;;;5049397;28;20102;-72
2022/08/26 12:23:46;;;;;;;12.63;6.18;;;31.90;91.20;;;;;;5049689;28;20461;-72
2022/08/26 12:26:40;;;;;;;18.98;6.35;;;31.80;91.20;;;;;;5051087;28;20055;-72
2022/08/26 12:29:22;;;;;;;11.80;4.32;;;31.80;91.60;;;;;;5049674;28;20049;-73
2022/08/26 12:31:51;;;;;;;13.05;5.32;;;31.90;91.90;;;;;;5049505;28;20558;-73
2022/08/26 12:34:19;;;;;;;26.85;6.15;;;31.90;91.50;;;;;;5051099;28;20698;-71
2022/08/26 12:36:52;;;;;;;13.52;5.07;;;31.90;91.50;;;;;;5050581;28;20037;-72
2022/08/26 12:39:32;;;;;;;13.68;4.45;;;31.90;91.50;;;;;;5082402;28;20120;-73
2022/08/26 12:42:02;;;;;;;10.65;5.43;;;31.90;91.70;;;;;;5049313;28;20037;-72
2022/08/26 12:44:49;;;;;;;11.07;5.93;;;31.90;91.60;;;;;;5082839;28;20045;-72
2022/08/26 12:47:26;;;;;;;8.52;4.85;;;31.70;91.90;;;;;;5049782;28;20115;-72
2022/08/26 12:50:05;;;;;;;14.02;7.47;;;31.60;92.20;;;;;;5082306;28;20053;-73
2022/08/26 12:53:08;;;;;;;13.30;5.32;;;31.50;92.30;;;;;;5065820;28;20053;-73
2022/08/26 12:55:49;;;;;;;9.35;5.18;;;31.50;92.40;;;;;;5058697;28;20045;-73
2022/08/26 12:58:27;;;;;;;10.75;5.50;;;31.40;91.60;;;;;;5066013;28;20128;-72
2022/08/26 13:01:05;;;;;;;13.00;5.13;;;31.50;91.50;;;;;;5048790;28;20049;-72
2022/08/26 13:03:36;;;;;;;14.23;4.78;;;31.60;91.70;;;;;;5082204;28;20778;-72
2022/08/26 13:06:16;;;;;;;12.32;5.28;;;31.50;91.70;;;;;;5082803;28;20048;-72
2022/08/26 13:09:01;;;;;;;8.02;5.18;;;31.60;91.90;;;;;;5065031;28;20059;-72
2022/08/26 13:11:53;;;;;;;7.37;4.37;;;31.60;91.70;;;;;;5048318;28;20053;-72
2022/08/26 13:14:23;;;;;;;9.77;4.28;;;31.60;91.70;;;;;;5046370;28;20792;-72
2022/08/26 13:16:52;;;;;;;16.10;6.65;;;31.60;91.80;;;;;;5049931;28;20068;-72